Terminal Aerodrome Forecast
Issued by NWS Nashville, TN

Current Version | Previous Version | Text Only | Print | Product List | Glossary Off
Versions: 1 2 3 4 5 6 7 8 9 10 11 12 13 14 15

000
FTUS44 KOHX 201700
TAFBNA
TAF
KBNA 201720Z 2018/2118 17010KT P6SM SCT050
     FM210000 22004KT P6SM SCT200
     FM211400 27008G15KT P6SM VCSH BKN035=

USA.gov is the U.S. government's official web portal to all federal, state and local government web resources and services.